sensor_id;sensor_type;location;lat;lon;timestamp;pressure;altitude;pressure_sealevel;temperature;humidity
54948;BME280;41113;41.882;12.530;2023-07-13T00:01:26;100995.06;;;30.08;30.47
54948;BME280;41113;41.882;12.530;2023-07-13T00:03:52;101009.78;;;29.70;30.80
54948;BME280;41113;41.882;12.530;2023-07-13T00:06:17;101004.56;;;29.57;31.18
54948;BME280;41113;41.882;12.530;2023-07-13T00:08:44;100996.50;;;29.72;30.91
54948;BME280;41113;41.882;12.530;2023-07-13T00:11:10;100990.00;;;29.83;30.71
54948;BME280;41113;41.882;12.530;2023-07-13T00:13:35;100980.19;;;29.92;30.65
54948;BME280;41113;41.882;12.530;2023-07-13T00:16:03;100987.97;;;29.95;30.70
54948;BME280;41113;41.882;12.530;2023-07-13T00:18:29;100987.03;;;29.90;30.84
54948;BME280;41113;41.882;12.530;2023-07-13T00:20:55;100983.19;;;29.91;30.80
54948;BME280;41113;41.882;12.530;2023-07-13T00:23:21;100983.53;;;29.94;30.88
54948;BME280;41113;41.882;12.530;2023-07-13T00:25:46;100979.41;;;29.97;30.76
54948;BME280;41113;41.882;12.530;2023-07-13T00:28:12;100975.78;;;29.96;30.63
54948;BME280;41113;41.882;12.530;2023-07-13T00:30:37;100974.13;;;29.95;30.56
54948;BME280;41113;41.882;12.530;2023-07-13T00:33:03;100968.06;;;29.98;30.71
54948;BME280;41113;41.882;12.530;2023-07-13T00:35:30;100972.78;;;29.98;30.50
54948;BME280;41113;41.882;12.530;2023-07-13T00:37:56;100972.50;;;29.99;30.60
54948;BME280;41113;41.882;12.530;2023-07-13T00:40:21;100974.44;;;29.99;30.61
54948;BME280;41113;41.882;12.530;2023-07-13T00:42:47;100966.72;;;30.01;30.27
54948;BME280;41113;41.882;12.530;2023-07-13T00:47:39;100959.50;;;30.00;30.11
54948;BME280;41113;41.882;12.530;2023-07-13T00:50:07;100956.47;;;30.01;30.22
54948;BME280;41113;41.882;12.530;2023-07-13T00:52:37;100952.88;;;30.01;30.10
54948;BME280;41113;41.882;12.530;2023-07-13T00:55:24;100961.16;;;30.01;29.93
54948;BME280;41113;41.882;12.530;2023-07-13T00:57:50;100956.47;;;30.01;29.86
54948;BME280;41113;41.882;12.530;2023-07-13T01:00:21;100960.34;;;30.00;30.12
54948;BME280;41113;41.882;12.530;2023-07-13T01:02:49;100956.66;;;29.95;29.88
54948;BME280;41113;41.882;12.530;2023-07-13T01:05:17;100959.19;;;29.96;30.32
54948;BME280;41113;41.882;12.530;2023-07-13T01:07:49;100944.22;;;29.97;30.16
54948;BME280;41113;41.882;12.530;2023-07-13T01:11:24;100951.44;;;29.98;30.16
54948;BME280;41113;41.882;12.530;2023-07-13T01:13:50;100949.78;;;29.97;30.31
54948;BME280;41113;41.882;12.530;2023-07-13T01:16:25;100956.97;;;29.98;30.17
54948;BME280;41113;41.882;12.530;2023-07-13T01:18:52;100954.47;;;29.97;30.35
54948;BME280;41113;41.882;12.530;2023-07-13T01:21:18;100947.53;;;29.94;30.36
54948;BME280;41113;41.882;12.530;2023-07-13T01:23:44;100950.28;;;29.94;30.12
54948;BME280;41113;41.882;12.530;2023-07-13T01:26:10;100948.09;;;29.96;30.39
54948;BME280;41113;41.882;12.530;2023-07-13T01:28:36;100945.59;;;29.95;30.41
54948;BME280;41113;41.882;12.530;2023-07-13T01:31:02;100953.06;;;29.94;30.38
54948;BME280;41113;41.882;12.530;2023-07-13T01:33:27;100945.34;;;29.96;30.37
54948;BME280;41113;41.882;12.530;2023-07-13T01:35:54;100948.09;;;29.96;30.55
54948;BME280;41113;41.882;12.530;2023-07-13T01:38:23;100952.53;;;29.97;30.47
54948;BME280;41113;41.882;12.530;2023-07-13T01:40:50;100953.63;;;29.96;30.36
54948;BME280;41113;41.882;12.530;2023-07-13T01:43:16;100944.22;;;29.97;30.57
54948;BME280;41113;41.882;12.530;2023-07-13T01:45:41;100947.59;;;29.99;30.37
54948;BME280;41113;41.882;12.530;2023-07-13T01:48:09;100952.53;;;29.97;30.48
54948;BME280;41113;41.882;12.530;2023-07-13T01:50:34;100939.78;;;29.96;30.54
54948;BME280;41113;41.882;12.530;2023-07-13T01:52:59;100943.91;;;29.94;30.76
54948;BME280;41113;41.882;12.530;2023-07-13T01:55:25;100943.91;;;29.94;30.64
54948;BME280;41113;41.882;12.530;2023-07-13T01:57:50;100948.09;;;29.96;30.79
54948;BME280;41113;41.882;12.530;2023-07-13T02:00:17;100953.63;;;29.96;30.86
54948;BME280;41113;41.882;12.530;2023-07-13T02:02:43;100942.81;;;29.95;30.90
54948;BME280;41113;41.882;12.530;2023-07-13T02:05:09;100949.78;;;29.97;30.92
54948;BME280;41113;41.882;12.530;2023-07-13T02:07:35;100948.41;;;30.00;30.89
54948;BME280;41113;41.882;12.530;2023-07-13T02:10:00;100956.97;;;29.98;31.00
54948;BME280;41113;41.882;12.530;2023-07-13T02:12:26;100962.00;;;30.01;30.98
54948;BME280;41113;41.882;12.530;2023-07-13T02:14:51;100963.72;;;30.02;31.29
54948;BME280;41113;41.882;12.530;2023-07-13T02:17:17;100953.47;;;30.03;31.20
54948;BME280;41113;41.882;12.530;2023-07-13T02:19:42;100959.00;;;30.03;31.11
54948;BME280;41113;41.882;12.530;2023-07-13T02:22:07;100955.63;;;30.01;31.29
54948;BME280;41113;41.882;12.530;2023-07-13T02:24:34;100965.28;;;29.98;31.47
54948;BME280;41113;41.882;12.530;2023-07-13T02:26:59;100962.22;;;29.95;31.53
54948;BME280;41113;41.882;12.530;2023-07-13T02:29:25;100961.94;;;29.96;31.60
54948;BME280;41113;41.882;12.530;2023-07-13T02:31:50;100973.88;;;29.97;31.70
54948;BME280;41113;41.882;12.530;2023-07-13T02:34:16;100966.06;;;29.94;31.81
54948;BME280;41113;41.882;12.530;2023-07-13T02:36:41;100975.22;;;29.94;31.91
54948;BME280;41113;41.882;12.530;2023-07-13T02:39:07;100972.44;;;29.94;31.58
54948;BME280;41113;41.882;12.530;2023-07-13T02:41:32;100975.22;;;29.94;31.72
54948;BME280;41113;41.882;12.530;2023-07-13T02:44:02;100978.00;;;29.94;31.95
54948;BME280;41113;41.882;12.530;2023-07-13T02:46:37;100968.59;;;29.95;32.06
54948;BME280;41113;41.882;12.530;2023-07-13T02:49:05;100972.03;;;29.86;32.54
54948;BME280;41113;41.882;12.530;2023-07-13T02:51:32;100972.72;;;29.54;33.35
54948;BME280;41113;41.882;12.530;2023-07-13T02:54:16;100974.25;;;29.45;34.19
54948;BME280;41113;41.882;12.530;2023-07-13T02:57:06;100970.53;;;29.23;34.24
54948;BME280;41113;41.882;12.530;2023-07-13T02:59:32;100971.56;;;29.00;35.27
54948;BME280;41113;41.882;12.530;2023-07-13T03:01:57;100970.34;;;28.79;36.59
54948;BME280;41113;41.882;12.530;2023-07-13T03:04:23;100988.72;;;28.57;37.98
54948;BME280;41113;41.882;12.530;2023-07-13T03:06:48;100992.44;;;28.62;36.97
54948;BME280;41113;41.882;12.530;2023-07-13T03:09:14;100988.59;;;28.63;36.84
54948;BME280;41113;41.882;12.530;2023-07-13T03:11:39;100990.16;;;28.59;36.87
54948;BME280;41113;41.882;12.530;2023-07-13T03:14:05;100987.72;;;28.46;37.59
54948;BME280;41113;41.882;12.530;2023-07-13T03:16:30;100983.19;;;28.40;37.96
54948;BME280;41113;41.882;12.530;2023-07-13T03:18:55;100975.72;;;28.40;37.84
54948;BME280;41113;41.882;12.530;2023-07-13T03:21:21;100972.13;;;28.40;37.93
54948;BME280;41113;41.882;12.530;2023-07-13T03:23:46;100965.78;;;28.56;37.36
54948;BME280;41113;41.882;12.530;2023-07-13T03:26:15;100970.94;;;28.64;37.91
54948;BME280;41113;41.882;12.530;2023-07-13T03:28:43;100974.13;;;28.44;38.15
54948;BME280;41113;41.882;12.530;2023-07-13T03:31:15;100977.09;;;28.26;39.61
54948;BME280;41113;41.882;12.530;2023-07-13T03:33:41;100976.50;;;28.24;38.69
54948;BME280;41113;41.882;12.530;2023-07-13T03:36:10;100977.91;;;28.38;38.15
54948;BME280;41113;41.882;12.530;2023-07-13T03:38:35;100979.50;;;28.51;37.94
54948;BME280;41113;41.882;12.530;2023-07-13T03:41:01;100972.06;;;28.51;37.97
54948;BME280;41113;41.882;12.530;2023-07-13T03:43:26;100975.66;;;28.52;38.09
54948;BME280;41113;41.882;12.530;2023-07-13T03:45:52;100973.47;;;28.54;38.03
54948;BME280;41113;41.882;12.530;2023-07-13T03:48:17;100971.59;;;28.71;37.66
54948;BME280;41113;41.882;12.530;2023-07-13T03:50:42;100969.59;;;28.83;37.49
54948;BME280;41113;41.882;12.530;2023-07-13T03:53:08;100977.03;;;28.66;37.91
54948;BME280;41113;41.882;12.530;2023-07-13T03:55:33;100971.03;;;28.41;39.27
54948;BME280;41113;41.882;12.530;2023-07-13T04:00:49;100972.66;;;28.54;38.67
54948;BME280;41113;41.882;12.530;2023-07-13T04:03:15;100968.25;;;28.69;38.04
54948;BME280;41113;41.882;12.530;2023-07-13T04:05:41;100964.19;;;28.89;37.73
54948;BME280;41113;41.882;12.530;2023-07-13T04:08:07;100953.63;;;29.02;37.57
54948;BME280;41113;41.882;12.530;2023-07-13T04:10:33;100958.16;;;29.08;37.62
54948;BME280;41113;41.882;12.530;2023-07-13T04:12:58;100951.94;;;29.18;37.39
54948;BME280;41113;41.882;12.530;2023-07-13T04:15:43;100944.72;;;29.34;36.94
54948;BME280;41113;41.882;12.530;2023-07-13T04:18:12;100946.91;;;29.49;37.04
54948;BME280;41113;41.882;12.530;2023-07-13T04:20:41;100942.28;;;29.76;36.43
54948;BME280;41113;41.882;12.530;2023-07-13T04:23:23;100947.66;;;30.04;36.25
54948;BME280;41113;41.882;12.530;2023-07-13T04:25:51;100953.59;;;30.40;35.33
54948;BME280;41113;41.882;12.530;2023-07-13T04:28:49;100955.41;;;30.78;35.10
54948;BME280;41113;41.882;12.530;2023-07-13T04:31:30;100950.00;;;31.25;34.14
54948;BME280;41113;41.882;12.530;2023-07-13T04:33:56;100956.25;;;31.53;33.84
54948;BME280;41113;41.882;12.530;2023-07-13T04:36:21;100950.59;;;31.33;33.97
54948;BME280;41113;41.882;12.530;2023-07-13T04:38:47;100954.53;;;31.42;33.67
54948;BME280;41113;41.882;12.530;2023-07-13T04:41:13;100956.53;;;32.04;32.51
54948;BME280;41113;41.882;12.530;2023-07-13T04:43:39;100954.50;;;32.57;31.68
54948;BME280;41113;41.882;12.530;2023-07-13T04:46:10;100953.13;;;33.00;30.30
54948;BME280;41113;41.882;12.530;2023-07-13T04:48:36;100945.31;;;33.53;30.31
54948;BME280;41113;41.882;12.530;2023-07-13T04:51:02;100958.41;;;33.52;30.36
54948;BME280;41113;41.882;12.530;2023-07-13T04:53:34;100956.75;;;33.26;30.44
54948;BME280;41113;41.882;12.530;2023-07-13T04:56:09;100956.19;;;33.08;30.82
54948;BME280;41113;41.882;12.530;2023-07-13T04:58:37;100961.16;;;33.62;29.66
54948;BME280;41113;41.882;12.530;2023-07-13T05:01:04;100965.56;;;33.84;29.89
54948;BME280;41113;41.882;12.530;2023-07-13T05:03:30;100969.78;;;34.36;29.49
54948;BME280;41113;41.882;12.530;2023-07-13T05:05:59;100972.31;;;34.76;29.11
54948;BME280;41113;41.882;12.530;2023-07-13T05:08:25;100982.28;;;34.92;28.80
54948;BME280;41113;41.882;12.530;2023-07-13T05:10:52;100977.56;;;34.88;29.04
54948;BME280;41113;41.882;12.530;2023-07-13T05:13:17;100978.31;;;34.99;28.64
54948;BME280;41113;41.882;12.530;2023-07-13T05:16:04;100970.50;;;34.96;28.69
54948;BME280;41113;41.882;12.530;2023-07-13T05:18:31;100973.50;;;34.65;29.51
54948;BME280;41113;41.882;12.530;2023-07-13T05:21:05;100972.59;;;35.14;28.75
54948;BME280;41113;41.882;12.530;2023-07-13T05:23:32;100975.06;;;35.73;27.92
54948;BME280;41113;41.882;12.530;2023-07-13T05:25:59;100978.94;;;36.01;27.46
54948;BME280;41113;41.882;12.530;2023-07-13T05:28:26;100977.28;;;36.62;26.98
54948;BME280;41113;41.882;12.530;2023-07-13T05:30:54;100979.09;;;37.42;26.43
54948;BME280;41113;41.882;12.530;2023-07-13T05:33:23;100969.59;;;37.84;25.56
54948;BME280;41113;41.882;12.530;2023-07-13T05:35:48;100960.50;;;38.28;25.45
54948;BME280;41113;41.882;12.530;2023-07-13T05:38:14;100962.22;;;38.51;24.84
54948;BME280;41113;41.882;12.530;2023-07-13T05:40:43;100974.53;;;38.78;23.66
54948;BME280;41113;41.882;12.530;2023-07-13T05:43:08;100971.19;;;38.98;24.29
54948;BME280;41113;41.882;12.530;2023-07-13T05:45:35;100972.31;;;39.42;23.71
54948;BME280;41113;41.882;12.530;2023-07-13T05:48:09;100967.84;;;39.41;22.37
54948;BME280;41113;41.882;12.530;2023-07-13T05:50:35;100964.06;;;38.20;24.36
54948;BME280;41113;41.882;12.530;2023-07-13T05:53:00;100972.47;;;38.92;23.85
54948;BME280;41113;41.882;12.530;2023-07-13T05:55:26;100970.69;;;39.80;23.11
54948;BME280;41113;41.882;12.530;2023-07-13T05:57:53;100973.44;;;40.03;23.07
54948;BME280;41113;41.882;12.530;2023-07-13T06:00:18;100969.31;;;40.09;21.84
54948;BME280;41113;41.882;12.530;2023-07-13T06:02:44;100975.22;;;39.99;22.85
54948;BME280;41113;41.882;12.530;2023-07-13T06:05:12;100973.22;;;39.51;22.63
54948;BME280;41113;41.882;12.530;2023-07-13T06:07:37;100975.53;;;39.97;22.29
54948;BME280;41113;41.882;12.530;2023-07-13T06:10:32;100963.59;;;39.92;20.07
54948;BME280;41113;41.882;12.530;2023-07-13T06:12:57;100962.34;;;40.15;21.46
54948;BME280;41113;41.882;12.530;2023-07-13T06:15:23;100966.00;;;40.07;20.74
54948;BME280;41113;41.882;12.530;2023-07-13T06:17:49;100965.00;;;40.20;21.34
54948;BME280;41113;41.882;12.530;2023-07-13T06:20:15;100970.38;;;40.48;20.59
54948;BME280;41113;41.882;12.530;2023-07-13T06:22:40;100973.78;;;40.10;21.29
54948;BME280;41113;41.882;12.530;2023-07-13T06:25:07;100973.69;;;40.58;20.65
54948;BME280;41113;41.882;12.530;2023-07-13T06:27:33;100973.53;;;40.72;20.56
54948;BME280;41113;41.882;12.530;2023-07-13T06:30:00;100981.31;;;40.75;20.49
54948;BME280;41113;41.882;12.530;2023-07-13T06:32:26;100990.75;;;40.96;20.40
54948;BME280;41113;41.882;12.530;2023-07-13T06:34:53;100977.66;;;40.74;20.30
54948;BME280;41113;41.882;12.530;2023-07-13T06:37:18;100987.25;;;39.91;21.15
54948;BME280;41113;41.882;12.530;2023-07-13T06:39:45;100988.34;;;39.41;21.27
54948;BME280;41113;41.882;12.530;2023-07-13T06:42:13;100979.63;;;38.76;21.55
54948;BME280;41113;41.882;12.530;2023-07-13T06:44:39;100987.50;;;38.38;22.42
54948;BME280;41113;41.882;12.530;2023-07-13T06:47:05;100983.47;;;38.30;22.70
54948;BME280;41113;41.882;12.530;2023-07-13T06:49:30;100975.56;;;38.05;22.43
54948;BME280;41113;41.882;12.530;2023-07-13T06:51:56;100977.84;;;37.61;22.90
54948;BME280;41113;41.882;12.530;2023-07-13T06:54:21;100974.47;;;37.32;23.44
54948;BME280;41113;41.882;12.530;2023-07-13T06:56:47;100979.41;;;37.21;23.23
54948;BME280;41113;41.882;12.530;2023-07-13T06:59:12;100976.28;;;37.09;23.13
54948;BME280;41113;41.882;12.530;2023-07-13T07:01:37;100977.94;;;36.72;23.67
54948;BME280;41113;41.882;12.530;2023-07-13T07:04:04;100980.56;;;36.88;23.52
54948;BME280;41113;41.882;12.530;2023-07-13T07:06:31;100976.78;;;36.79;23.68
54948;BME280;41113;41.882;12.530;2023-07-13T07:08:58;100979.09;;;36.71;23.51
54948;BME280;41113;41.882;12.530;2023-07-13T07:11:25;100978.97;;;36.82;23.54
54948;BME280;41113;41.882;12.530;2023-07-13T07:13:52;100972.97;;;36.69;24.23
54948;BME280;41113;41.882;12.530;2023-07-13T07:16:20;100978.44;;;36.80;23.80
54948;BME280;41113;41.882;12.530;2023-07-13T07:18:50;100978.06;;;36.86;24.05
54948;BME280;41113;41.882;12.530;2023-07-13T07:21:19;100981.00;;;36.95;23.59
54948;BME280;41113;41.882;12.530;2023-07-13T07:23:51;100984.72;;;36.90;23.71
54948;BME280;41113;41.882;12.530;2023-07-13T07:26:17;100980.72;;;36.78;24.01
54948;BME280;41113;41.882;12.530;2023-07-13T07:29:28;100982.50;;;36.68;24.01
54948;BME280;41113;41.882;12.530;2023-07-13T07:31:36;100982.81;;;36.86;24.01
54948;BME280;41113;41.882;12.530;2023-07-13T07:34:09;100973.44;;;36.76;23.95
54948;BME280;41113;41.882;12.530;2023-07-13T07:36:36;100970.25;;;36.64;24.48
54948;BME280;41113;41.882;12.530;2023-07-13T07:39:02;100975.63;;;36.61;24.31
54948;BME280;41113;41.882;12.530;2023-07-13T07:41:28;100983.78;;;36.38;25.00
54948;BME280;41113;41.882;12.530;2023-07-13T07:43:57;100982.66;;;36.58;24.99
54948;BME280;41113;41.882;12.530;2023-07-13T07:46:23;100972.44;;;36.67;24.86
54948;BME280;41113;41.882;12.530;2023-07-13T07:48:48;100978.66;;;36.64;24.90
54948;BME280;41113;41.882;12.530;2023-07-13T07:51:14;100975.84;;;36.64;24.98
54948;BME280;41113;41.882;12.530;2023-07-13T07:53:40;100976.06;;;36.68;25.04
54948;BME280;41113;41.882;12.530;2023-07-13T07:56:05;100976.19;;;36.44;25.38
54948;BME280;41113;41.882;12.530;2023-07-13T07:58:33;100969.66;;;36.30;25.76
54948;BME280;41113;41.882;12.530;2023-07-13T08:01:04;100966.84;;;36.30;26.10
54948;BME280;41113;41.882;12.530;2023-07-13T08:03:31;100962.19;;;36.44;25.96
54948;BME280;41113;41.882;12.530;2023-07-13T08:05:56;100970.13;;;36.56;25.67
54948;BME280;41113;41.882;12.530;2023-07-13T08:08:29;100974.75;;;36.46;25.83
54948;BME280;41113;41.882;12.530;2023-07-13T08:10:55;100975.50;;;36.28;26.14
54948;BME280;41113;41.882;12.530;2023-07-13T08:13:21;100970.09;;;36.37;25.97
54948;BME280;41113;41.882;12.530;2023-07-13T08:15:47;100972.53;;;36.62;25.78
54948;BME280;41113;41.882;12.530;2023-07-13T08:18:14;100981.56;;;36.78;25.95
54948;BME280;41113;41.882;12.530;2023-07-13T08:20:41;100985.34;;;36.26;26.52
54948;BME280;41113;41.882;12.530;2023-07-13T08:23:09;100981.59;;;35.93;26.77
54948;BME280;41113;41.882;12.530;2023-07-13T08:25:37;100994.00;;;36.05;26.71
54948;BME280;41113;41.882;12.530;2023-07-13T08:28:04;101008.81;;;36.30;26.43
54948;BME280;41113;41.882;12.530;2023-07-13T08:30:30;101022.59;;;36.45;26.95
54948;BME280;41113;41.882;12.530;2023-07-13T08:32:56;101020.09;;;36.43;26.78
54948;BME280;41113;41.882;12.530;2023-07-13T08:35:23;101014.13;;;36.50;26.85
54948;BME280;41113;41.882;12.530;2023-07-13T08:37:54;101013.50;;;36.72;26.56
54948;BME280;41113;41.882;12.530;2023-07-13T08:40:24;101025.00;;;36.70;27.10
54948;BME280;41113;41.882;12.530;2023-07-13T08:42:55;101029.84;;;36.65;27.52
54948;BME280;41113;41.882;12.530;2023-07-13T08:45:30;101004.22;;;36.58;27.54
54948;BME280;41113;41.882;12.530;2023-07-13T08:48:21;101000.94;;;36.32;27.98
54948;BME280;41113;41.882;12.530;2023-07-13T08:51:02;101000.59;;;36.14;27.98
54948;BME280;41113;41.882;12.530;2023-07-13T08:53:46;100986.72;;;36.04;28.22
54948;BME280;41113;41.882;12.530;2023-07-13T08:56:25;100983.34;;;36.07;28.71
54948;BME280;41113;41.882;12.530;2023-07-13T08:59:22;100977.03;;;36.21;28.23
54948;BME280;41113;41.882;12.530;2023-07-13T09:04:32;100976.06;;;35.88;28.63
54948;BME280;41113;41.882;12.530;2023-07-13T09:07:26;100972.88;;;35.70;29.23
54948;BME280;41113;41.882;12.530;2023-07-13T09:10:52;100990.25;;;35.91;29.69
54948;BME280;41113;41.882;12.530;2023-07-13T09:13:46;100992.66;;;36.22;29.08
54948;BME280;41113;41.882;12.530;2023-07-13T09:16:15;100989.81;;;36.27;28.83
54948;BME280;41113;41.882;12.530;2023-07-13T09:18:44;100997.13;;;36.23;29.03
54948;BME280;41113;41.882;12.530;2023-07-13T09:21:24;101008.84;;;36.25;29.26
54948;BME280;41113;41.882;12.530;2023-07-13T09:23:53;101007.78;;;36.21;29.16
54948;BME280;41113;41.882;12.530;2023-07-13T09:26:23;100991.91;;;36.16;29.43
54948;BME280;41113;41.882;12.530;2023-07-13T09:32:14;100970.22;;;36.27;29.47
54948;BME280;41113;41.882;12.530;2023-07-13T09:34:42;100971.16;;;36.41;29.25
54948;BME280;41113;41.882;12.530;2023-07-13T09:37:07;100981.16;;;36.47;28.99
54948;BME280;41113;41.882;12.530;2023-07-13T09:39:36;100977.69;;;36.55;29.02
54948;BME280;41113;41.882;12.530;2023-07-13T09:42:20;100994.03;;;36.48;30.41
54948;BME280;41113;41.882;12.530;2023-07-13T09:45:01;100985.38;;;36.63;29.53
54948;BME280;41113;41.882;12.530;2023-07-13T09:47:33;100975.56;;;36.47;29.48
54948;BME280;41113;41.882;12.530;2023-07-13T09:50:06;100988.88;;;36.12;30.13
54948;BME280;41113;41.882;12.530;2023-07-13T09:55:34;100992.22;;;36.14;30.48
54948;BME280;41113;41.882;12.530;2023-07-13T09:58:29;100974.06;;;36.12;30.07
54948;BME280;41113;41.882;12.530;2023-07-13T10:01:00;100979.19;;;35.81;30.67
54948;BME280;41113;41.882;12.530;2023-07-13T10:03:35;100970.75;;;35.86;30.30
54948;BME280;41113;41.882;12.530;2023-07-13T10:06:15;100966.09;;;36.00;30.59
54948;BME280;41113;41.882;12.530;2023-07-13T10:08:45;100970.16;;;35.89;30.71
54948;BME280;41113;41.882;12.530;2023-07-13T10:11:19;100967.75;;;35.77;30.93
54948;BME280;41113;41.882;12.530;2023-07-13T10:13:55;100959.41;;;35.72;30.97
54948;BME280;41113;41.882;12.530;2023-07-13T10:16:25;100945.28;;;35.64;30.93
54948;BME280;41113;41.882;12.530;2023-07-13T10:19:19;100958.84;;;35.51;31.65
54948;BME280;41113;41.882;12.530;2023-07-13T10:21:58;100964.91;;;35.59;31.92
54948;BME280;41113;41.882;12.530;2023-07-13T10:24:33;100964.91;;;35.59;31.69
54948;BME280;41113;41.882;12.530;2023-07-13T10:29:37;100951.00;;;35.53;31.33
54948;BME280;41113;41.882;12.530;2023-07-13T10:32:09;100944.56;;;35.53;32.12
54948;BME280;41113;41.882;12.530;2023-07-13T10:34:43;100949.41;;;35.42;32.15
54948;BME280;41113;41.882;12.530;2023-07-13T10:37:20;100950.00;;;35.39;32.33
54948;BME280;41113;41.882;12.530;2023-07-13T10:39:50;100964.50;;;35.41;32.57
54948;BME280;41113;41.882;12.530;2023-07-13T10:42:27;100958.94;;;35.41;33.53
54948;BME280;41113;41.882;12.530;2023-07-13T10:44:53;100959.44;;;35.48;32.78
54948;BME280;41113;41.882;12.530;2023-07-13T10:47:20;100964.19;;;35.72;32.52
54948;BME280;41113;41.882;12.530;2023-07-13T10:49:52;100968.00;;;35.81;32.36
54948;BME280;41113;41.882;12.530;2023-07-13T10:52:50;100949.06;;;35.73;32.81
54948;BME280;41113;41.882;12.530;2023-07-13T10:55:35;100947.31;;;35.58;34.15
54948;BME280;41113;41.882;12.530;2023-07-13T10:58:18;100958.81;;;35.22;34.28
54948;BME280;41113;41.882;12.530;2023-07-13T11:01:10;100952.59;;;35.02;34.97
54948;BME280;41113;41.882;12.530;2023-07-13T11:06:12;100946.66;;;34.74;34.98
54948;BME280;41113;41.882;12.530;2023-07-13T11:11:34;100955.78;;;35.19;34.76
54948;BME280;41113;41.882;12.530;2023-07-13T11:14:02;100945.94;;;35.27;34.05
54948;BME280;41113;41.882;12.530;2023-07-13T11:16:46;100949.19;;;35.39;35.10
54948;BME280;41113;41.882;12.530;2023-07-13T11:22:10;100935.22;;;35.39;34.94
54948;BME280;41113;41.882;12.530;2023-07-13T11:25:00;100941.03;;;35.42;34.79
54948;BME280;41113;41.882;12.530;2023-07-13T11:27:36;100951.03;;;35.19;35.24
54948;BME280;41113;41.882;12.530;2023-07-13T11:30:24;100960.41;;;35.34;35.57
54948;BME280;41113;41.882;12.530;2023-07-13T11:32:51;100964.72;;;35.21;35.01
54948;BME280;41113;41.882;12.530;2023-07-13T11:35:23;100961.28;;;35.29;34.68
54948;BME280;41113;41.882;12.530;2023-07-13T11:37:52;100960.59;;;35.42;34.34
54948;BME280;41113;41.882;12.530;2023-07-13T11:40:22;100946.84;;;35.51;34.52
54948;BME280;41113;41.882;12.530;2023-07-13T11:42:51;100958.44;;;35.34;34.79
54948;BME280;41113;41.882;12.530;2023-07-13T11:45:22;100944.03;;;35.22;35.13
54948;BME280;41113;41.882;12.530;2023-07-13T11:47:48;100945.94;;;35.27;34.76
54948;BME280;41113;41.882;12.530;2023-07-13T11:50:23;100948.13;;;35.35;35.27
54948;BME280;41113;41.882;12.530;2023-07-13T11:52:52;100953.66;;;35.06;36.14
54948;BME280;41113;41.882;12.530;2023-07-13T11:55:21;100953.84;;;35.19;35.62
54948;BME280;41113;41.882;12.530;2023-07-13T11:58:09;100961.91;;;35.21;35.77
54948;BME280;41113;41.882;12.530;2023-07-13T12:00:37;100978.03;;;35.29;35.22
54948;BME280;41113;41.882;12.530;2023-07-13T12:03:04;100973.78;;;35.37;35.47
54948;BME280;41113;41.882;12.530;2023-07-13T12:05:31;100968.53;;;35.30;35.88
54948;BME280;41113;41.882;12.530;2023-07-13T12:07:59;100971.38;;;35.25;35.59
54948;BME280;41113;41.882;12.530;2023-07-13T12:10:33;100969.72;;;35.24;35.57
54948;BME280;41113;41.882;12.530;2023-07-13T12:13:01;100960.69;;;35.32;36.25
54948;BME280;41113;41.882;12.530;2023-07-13T12:15:39;100978.03;;;35.29;36.38
54948;BME280;41113;41.882;12.530;2023-07-13T12:18:21;100985.88;;;35.27;36.21
54948;BME280;41113;41.882;12.530;2023-07-13T12:20:50;100988.13;;;35.25;35.97
54948;BME280;41113;41.882;12.530;2023-07-13T12:23:25;100990.38;;;35.23;36.39
54948;BME280;41113;41.882;12.530;2023-07-13T12:25:56;100991.88;;;35.10;36.33
54948;BME280;41113;41.882;12.530;2023-07-13T12:28:36;100988.38;;;34.94;37.10
54948;BME280;41113;41.882;12.530;2023-07-13T12:31:26;100986.81;;;34.83;38.06
54948;BME280;41113;41.882;12.530;2023-07-13T12:34:07;100982.56;;;34.91;37.47
54948;BME280;41113;41.882;12.530;2023-07-13T12:36:36;100993.47;;;34.87;37.38
54948;BME280;41113;41.882;12.530;2023-07-13T12:39:19;100967.59;;;34.72;38.19
54948;BME280;41113;41.882;12.530;2023-07-13T12:41:47;100980.03;;;34.45;38.64
54948;BME280;41113;41.882;12.530;2023-07-13T12:44:15;100967.53;;;34.38;39.58
54948;BME280;41113;41.882;12.530;2023-07-13T12:46:54;100968.50;;;34.62;38.77
54948;BME280;41113;41.882;12.530;2023-07-13T12:49:29;100981.38;;;34.58;39.24
54948;BME280;41113;41.882;12.530;2023-07-13T12:52:00;100975.28;;;34.51;39.21
54948;BME280;41113;41.882;12.530;2023-07-13T12:54:27;100973.09;;;34.48;38.53
54948;BME280;41113;41.882;12.530;2023-07-13T12:56:55;100965.31;;;34.40;39.69
54948;BME280;41113;41.882;12.530;2023-07-13T12:59:29;100968.38;;;34.38;39.22
54948;BME280;41113;41.882;12.530;2023-07-13T13:01:56;100950.81;;;34.38;38.95
54948;BME280;41113;41.882;12.530;2023-07-13T13:04:23;100955.81;;;34.41;39.26
54948;BME280;41113;41.882;12.530;2023-07-13T13:07:00;100954.72;;;34.31;39.37
54948;BME280;41113;41.882;12.530;2023-07-13T13:09:26;100951.94;;;34.31;38.95
54948;BME280;41113;41.882;12.530;2023-07-13T13:11:53;100952.44;;;34.44;38.86
54948;BME280;41113;41.882;12.530;2023-07-13T13:14:19;100946.63;;;34.40;39.05
54948;BME280;41113;41.882;12.530;2023-07-13T13:16:48;100949.44;;;34.30;39.29
54948;BME280;41113;41.882;12.530;2023-07-13T13:19:24;100937.81;;;34.13;40.38
54948;BME280;41113;41.882;12.530;2023-07-13T13:21:51;100941.72;;;34.12;39.54